sensor_id;sensor_type;location;lat;lon;timestamp;pressure;altitude;pressure_sealevel;temperature;humidity
52949;BME280;38812;50.942;3.644;2022-07-10T00:00:09;102626.53;;;11.99;100.00
52949;BME280;38812;50.942;3.644;2022-07-10T00:02:36;102630.94;;;11.98;100.00
52949;BME280;38812;50.942;3.644;2022-07-10T00:05:01;102624.78;;;11.96;100.00
52949;BME280;38812;50.942;3.644;2022-07-10T00:07:26;102632.66;;;11.93;100.00
52949;BME280;38812;50.942;3.644;2022-07-10T00:09:52;102617.75;;;11.88;100.00
52949;BME280;38812;50.942;3.644;2022-07-10T00:12:17;102623.03;;;11.88;100.00
52949;BME280;38812;50.942;3.644;2022-07-10T00:14:42;102597.50;;;11.68;100.00
52949;BME280;38812;50.942;3.644;2022-07-10T00:17:08;102616.84;;;11.78;100.00
52949;BME280;38812;50.942;3.644;2022-07-10T00:19:33;102589.59;;;11.68;100.00
52949;BME280;38812;50.942;3.644;2022-07-10T00:21:59;102605.38;;;11.72;100.00
52949;BME280;38812;50.942;3.644;2022-07-10T00:24:24;102571.13;;;11.47;100.00
52949;BME280;38812;50.942;3.644;2022-07-10T00:26:49;102577.28;;;11.57;100.00
52949;BME280;38812;50.942;3.644;2022-07-10T00:29:15;102580.81;;;11.63;100.00
52949;BME280;38812;50.942;3.644;2022-07-10T00:31:41;102588.69;;;11.59;100.00
52949;BME280;38812;50.942;3.644;2022-07-10T00:34:06;102589.56;;;11.56;100.00
52949;BME280;38812;50.942;3.644;2022-07-10T00:36:31;102584.28;;;11.50;100.00
52949;BME280;38812;50.942;3.644;2022-07-10T00:38:57;102592.16;;;11.52;100.00
52949;BME280;38812;50.942;3.644;2022-07-10T00:41:22;102578.13;;;11.41;100.00
52949;BME280;38812;50.942;3.644;2022-07-10T00:43:52;102586.03;;;11.47;100.00
52949;BME280;38812;50.942;3.644;2022-07-10T00:46:18;102578.13;;;11.41;100.00
52949;BME280;38812;50.942;3.644;2022-07-10T00:48:50;102580.78;;;11.51;100.00
52949;BME280;38812;50.942;3.644;2022-07-10T00:51:18;102565.84;;;11.43;100.00
52949;BME280;38812;50.942;3.644;2022-07-10T00:53:45;102580.75;;;11.50;100.00
52949;BME280;38812;50.942;3.644;2022-07-10T00:56:11;102571.97;;;11.39;100.00
52949;BME280;38812;50.942;3.644;2022-07-10T00:58:37;102564.94;;;11.33;100.00
52949;BME280;38812;50.942;3.644;2022-07-10T01:01:04;102556.16;;;11.31;100.00
52949;BME280;38812;50.942;3.644;2022-07-10T01:03:30;102554.41;;;11.36;100.00
52949;BME280;38812;50.942;3.644;2022-07-10T01:05:55;102507.88;;;11.15;100.00
52949;BME280;38812;50.942;3.644;2022-07-10T01:08:21;102556.19;;;11.43;100.00
52949;BME280;38812;50.942;3.644;2022-07-10T01:10:47;102532.44;;;11.28;100.00
52949;BME280;38812;50.942;3.644;2022-07-10T01:13:13;102523.69;;;11.21;100.00
52949;BME280;38812;50.942;3.644;2022-07-10T01:15:38;102550.03;;;11.33;100.00
52949;BME280;38812;50.942;3.644;2022-07-10T01:18:04;102508.72;;;11.08;100.00
52949;BME280;38812;50.942;3.644;2022-07-10T01:20:31;102539.50;;;11.24;100.00
52949;BME280;38812;50.942;3.644;2022-07-10T01:23:00;102535.97;;;11.22;100.00
52949;BME280;38812;50.942;3.644;2022-07-10T01:25:26;102500.81;;;11.05;100.00
52949;BME280;38812;50.942;3.644;2022-07-10T01:27:51;102506.09;;;11.08;100.00
52949;BME280;38812;50.942;3.644;2022-07-10T01:30:17;102523.69;;;11.18;100.00
52949;BME280;38812;50.942;3.644;2022-07-10T01:32:44;102527.16;;;11.14;100.00
52949;BME280;38812;50.942;3.644;2022-07-10T01:35:10;102515.75;;;11.09;100.00
52949;BME280;38812;50.942;3.644;2022-07-10T01:37:37;102500.81;;;11.05;100.00
52949;BME280;38812;50.942;3.644;2022-07-10T01:40:02;102499.94;;;11.05;100.00
52949;BME280;38812;50.942;3.644;2022-07-10T01:42:28;102506.97;;;11.06;100.00
52949;BME280;38812;50.942;3.644;2022-07-10T01:44:54;102502.56;;;11.05;100.00
52949;BME280;38812;50.942;3.644;2022-07-10T01:47:20;102487.66;;;10.96;100.00
52949;BME280;38812;50.942;3.644;2022-07-10T01:49:50;102506.09;;;11.07;100.00
52949;BME280;38812;50.942;3.644;2022-07-10T01:52:15;102503.47;;;11.02;100.00
52949;BME280;38812;50.942;3.644;2022-07-10T01:54:40;102506.94;;;10.96;100.00
52949;BME280;38812;50.942;3.644;2022-07-10T01:57:06;102466.56;;;10.78;100.00
52949;BME280;38812;50.942;3.644;2022-07-10T01:59:31;102507.81;;;10.94;100.00
52949;BME280;38812;50.942;3.644;2022-07-10T02:01:57;102506.00;;;10.87;100.00
52949;BME280;38812;50.942;3.644;2022-07-10T02:04:22;102494.59;;;10.83;100.00
52949;BME280;38812;50.942;3.644;2022-07-10T02:07:18;102491.97;;;10.76;100.00
52949;BME280;38812;50.942;3.644;2022-07-10T02:09:44;102482.31;;;10.73;100.00
52949;BME280;38812;50.942;3.644;2022-07-10T02:12:12;102502.50;;;10.85;100.00
52949;BME280;38812;50.942;3.644;2022-07-10T02:14:39;102518.28;;;10.88;100.00
52949;BME280;38812;50.942;3.644;2022-07-10T02:17:06;102512.16;;;10.86;100.00
52949;BME280;38812;50.942;3.644;2022-07-10T02:19:32;102504.25;;;10.86;100.00
52949;BME280;38812;50.942;3.644;2022-07-10T02:21:58;102490.25;;;10.81;100.00
52949;BME280;38812;50.942;3.644;2022-07-10T02:24:24;102485.81;;;10.72;100.00
52949;BME280;38812;50.942;3.644;2022-07-10T02:26:49;102491.94;;;10.73;100.00
52949;BME280;38812;50.942;3.644;2022-07-10T02:29:15;102472.63;;;10.58;100.00
52949;BME280;38812;50.942;3.644;2022-07-10T02:31:41;102501.56;;;10.68;100.00
52949;BME280;38812;50.942;3.644;2022-07-10T02:34:07;102496.25;;;10.57;100.00
52949;BME280;38812;50.942;3.644;2022-07-10T02:36:33;102512.03;;;10.58;100.00
52949;BME280;38812;50.942;3.644;2022-07-10T02:38:59;102504.97;;;10.50;100.00
52949;BME280;38812;50.942;3.644;2022-07-10T02:41:24;102507.59;;;10.51;100.00
52949;BME280;38812;50.942;3.644;2022-07-10T02:43:50;102487.38;;;10.35;100.00
52949;BME280;38812;50.942;3.644;2022-07-10T02:46:15;102494.44;;;10.45;100.00
52949;BME280;38812;50.942;3.644;2022-07-10T02:48:40;102461.94;;;10.28;100.00
52949;BME280;38812;50.942;3.644;2022-07-10T02:51:06;102483.09;;;10.55;100.00
52949;BME280;38812;50.942;3.644;2022-07-10T02:53:31;102483.94;;;10.48;100.00
52949;BME280;38812;50.942;3.644;2022-07-10T02:55:57;102481.31;;;10.48;100.00
52949;BME280;38812;50.942;3.644;2022-07-10T02:58:22;102470.78;;;10.45;100.00
52949;BME280;38812;50.942;3.644;2022-07-10T03:00:48;102464.66;;;10.48;100.00
52949;BME280;38812;50.942;3.644;2022-07-10T03:03:13;102465.50;;;10.42;100.00
52949;BME280;38812;50.942;3.644;2022-07-10T03:05:39;102470.78;;;10.45;100.00
52949;BME280;38812;50.942;3.644;2022-07-10T03:08:04;102453.22;;;10.35;100.00
52949;BME280;38812;50.942;3.644;2022-07-10T03:10:29;102476.88;;;10.43;100.00
52949;BME280;38812;50.942;3.644;2022-07-10T03:12:55;102431.25;;;10.22;100.00
52949;BME280;38812;50.942;3.644;2022-07-10T03:15:20;102461.97;;;10.40;100.00
52949;BME280;38812;50.942;3.644;2022-07-10T03:17:46;102454.09;;;10.34;100.00
52949;BME280;38812;50.942;3.644;2022-07-10T03:20:11;102458.44;;;10.29;100.00
52949;BME280;38812;50.942;3.644;2022-07-10T03:22:37;102454.91;;;10.24;100.00
52949;BME280;38812;50.942;3.644;2022-07-10T03:25:03;102468.06;;;10.28;100.00
52949;BME280;38812;50.942;3.644;2022-07-10T03:27:29;102461.00;;;10.23;100.00
52949;BME280;38812;50.942;3.644;2022-07-10T03:29:54;102473.28;;;10.24;100.00
52949;BME280;38812;50.942;3.644;2022-07-10T03:32:19;102470.69;;;10.30;100.00
52949;BME280;38812;50.942;3.644;2022-07-10T03:34:45;102455.69;;;10.14;100.00
52949;BME280;38812;50.942;3.644;2022-07-10T03:37:10;102435.53;;;10.10;100.00
52949;BME280;38812;50.942;3.644;2022-07-10T03:39:36;102456.72;;;10.33;100.00
52949;BME280;38812;50.942;3.644;2022-07-10T03:42:01;102450.53;;;10.26;100.00
52949;BME280;38812;50.942;3.644;2022-07-10T03:44:27;102447.94;;;10.29;100.00
52949;BME280;38812;50.942;3.644;2022-07-10T03:46:52;102463.72;;;10.35;100.00
52949;BME280;38812;50.942;3.644;2022-07-10T03:49:18;102454.09;;;10.40;100.00
52949;BME280;38812;50.942;3.644;2022-07-10T03:51:43;102428.72;;;10.39;100.00
52949;BME280;38812;50.942;3.644;2022-07-10T03:54:09;102437.47;;;10.35;100.00
52949;BME280;38812;50.942;3.644;2022-07-10T03:56:34;102438.28;;;10.26;100.00
52949;BME280;38812;50.942;3.644;2022-07-10T03:59:18;102451.47;;;10.34;100.00
52949;BME280;38812;50.942;3.644;2022-07-10T04:01:43;102439.94;;;10.15;100.00
52949;BME280;38812;50.942;3.644;2022-07-10T04:04:09;102445.19;;;10.15;100.00
52949;BME280;38812;50.942;3.644;2022-07-10T04:06:34;102452.28;;;10.25;100.00
52949;BME280;38812;50.942;3.644;2022-07-10T04:09:03;102434.69;;;10.18;100.00
52949;BME280;38812;50.942;3.644;2022-07-10T04:11:29;102440.00;;;10.21;100.00
52949;BME280;38812;50.942;3.644;2022-07-10T04:13:54;102429.47;;;10.20;100.00
52949;BME280;38812;50.942;3.644;2022-07-10T04:16:20;102459.34;;;10.40;100.00
52949;BME280;38812;50.942;3.644;2022-07-10T04:18:45;102463.78;;;10.47;100.00
52949;BME280;38812;50.942;3.644;2022-07-10T04:21:11;102441.81;;;10.32;100.00
52949;BME280;38812;50.942;3.644;2022-07-10T04:23:36;102476.91;;;10.44;100.00
52949;BME280;38812;50.942;3.644;2022-07-10T04:26:02;102498.00;;;10.56;100.00
52949;BME280;38812;50.942;3.644;2022-07-10T04:28:27;102473.34;;;10.33;100.00
52949;BME280;38812;50.942;3.644;2022-07-10T04:30:52;102490.03;;;10.44;100.00
52949;BME280;38812;50.942;3.644;2022-07-10T04:33:18;102476.88;;;10.43;100.00
52949;BME280;38812;50.942;3.644;2022-07-10T04:35:43;102480.44;;;10.49;100.00
52949;BME280;38812;50.942;3.644;2022-07-10T04:38:09;102494.53;;;10.65;100.00
52949;BME280;38812;50.942;3.644;2022-07-10T04:40:34;102505.97;;;10.75;100.00
52949;BME280;38812;50.942;3.644;2022-07-10T04:43:00;102491.03;;;10.64;100.00
52949;BME280;38812;50.942;3.644;2022-07-10T04:45:25;102503.38;;;10.81;100.00
52949;BME280;38812;50.942;3.644;2022-07-10T04:47:51;102503.44;;;10.94;100.00
52949;BME280;38812;50.942;3.644;2022-07-10T04:50:16;102485.06;;;11.02;100.00
52949;BME280;38812;50.942;3.644;2022-07-10T04:52:41;102500.03;;;11.24;100.00
52949;BME280;38812;50.942;3.644;2022-07-10T04:55:07;102457.06;;;11.24;100.00
52949;BME280;38812;50.942;3.644;2022-07-10T04:57:32;102482.53;;;11.61;100.00
52949;BME280;38812;50.942;3.644;2022-07-10T04:59:58;102481.66;;;11.93;100.00
52949;BME280;38812;50.942;3.644;2022-07-10T05:02:23;102531.63;;;12.61;100.00
52949;BME280;38812;50.942;3.644;2022-07-10T05:04:49;102562.16;;;13.35;100.00
52949;BME280;38812;50.942;3.644;2022-07-10T05:07:14;102655.72;;;14.29;100.00
52949;BME280;38812;50.942;3.644;2022-07-10T05:09:40;102667.41;;;15.08;100.00
52949;BME280;38812;50.942;3.644;2022-07-10T05:12:06;102714.16;;;15.84;100.00
52949;BME280;38812;50.942;3.644;2022-07-10T05:14:32;102713.63;;;16.24;100.00
52949;BME280;38812;50.942;3.644;2022-07-10T05:16:57;102733.19;;;16.73;100.00
52949;BME280;38812;50.942;3.644;2022-07-10T05:19:22;102742.59;;;17.40;100.00
52949;BME280;38812;50.942;3.644;2022-07-10T05:21:48;102739.13;;;17.81;100.00
52949;BME280;38812;50.942;3.644;2022-07-10T05:24:13;102742.38;;;19.05;100.00
52949;BME280;38812;50.942;3.644;2022-07-10T05:26:39;102743.75;;;19.22;100.00
52949;BME280;38812;50.942;3.644;2022-07-10T05:29:04;102745.28;;;19.63;100.00
52949;BME280;38812;50.942;3.644;2022-07-10T05:31:30;102729.66;;;20.09;100.00
52949;BME280;38812;50.942;3.644;2022-07-10T05:33:55;102754.97;;;20.53;100.00
52949;BME280;38812;50.942;3.644;2022-07-10T05:36:20;102754.44;;;21.46;100.00
52949;BME280;38812;50.942;3.644;2022-07-10T05:38:46;102725.22;;;21.42;100.00
52949;BME280;38812;50.942;3.644;2022-07-10T05:41:11;102718.97;;;20.92;100.00
52949;BME280;38812;50.942;3.644;2022-07-10T05:43:37;102749.13;;;21.22;100.00
52949;BME280;38812;50.942;3.644;2022-07-10T05:46:02;102740.03;;;21.97;100.00
52949;BME280;38812;50.942;3.644;2022-07-10T05:48:27;102728.88;;;21.39;100.00
52949;BME280;38812;50.942;3.644;2022-07-10T05:50:53;102717.66;;;21.03;100.00
52949;BME280;38812;50.942;3.644;2022-07-10T05:53:19;102729.25;;;22.00;100.00
52949;BME280;38812;50.942;3.644;2022-07-10T05:55:48;102726.38;;;21.58;100.00
52949;BME280;38812;50.942;3.644;2022-07-10T05:58:15;102732.63;;;22.05;100.00
52949;BME280;38812;50.942;3.644;2022-07-10T06:00:40;102737.13;;;22.05;100.00
52949;BME280;38812;50.942;3.644;2022-07-10T06:03:09;102730.59;;;22.98;99.84
52949;BME280;38812;50.942;3.644;2022-07-10T06:05:35;102723.66;;;23.14;99.78
52949;BME280;38812;50.942;3.644;2022-07-10T06:08:01;102719.34;;;23.88;92.38
52949;BME280;38812;50.942;3.644;2022-07-10T06:10:26;102735.00;;;23.19;97.67
52949;BME280;38812;50.942;3.644;2022-07-10T06:12:52;102729.59;;;24.36;88.76
52949;BME280;38812;50.942;3.644;2022-07-10T06:15:17;102735.69;;;23.04;94.48
52949;BME280;38812;50.942;3.644;2022-07-10T06:17:42;102728.13;;;21.09;100.00
52949;BME280;38812;50.942;3.644;2022-07-10T06:20:08;102726.88;;;21.44;100.00
52949;BME280;38812;50.942;3.644;2022-07-10T06:22:34;102737.75;;;21.15;100.00
52949;BME280;38812;50.942;3.644;2022-07-10T06:25:07;102740.72;;;19.68;100.00
52949;BME280;38812;50.942;3.644;2022-07-10T06:27:33;102719.47;;;19.00;100.00
52949;BME280;38812;50.942;3.644;2022-07-10T06:29:59;102721.22;;;19.01;100.00
52949;BME280;38812;50.942;3.644;2022-07-10T06:32:25;102739.94;;;18.62;100.00
52949;BME280;38812;50.942;3.644;2022-07-10T06:34:51;102736.56;;;18.91;100.00
52949;BME280;38812;50.942;3.644;2022-07-10T06:37:18;102715.06;;;18.63;100.00
52949;BME280;38812;50.942;3.644;2022-07-10T06:39:45;102738.97;;;18.66;100.00
52949;BME280;38812;50.942;3.644;2022-07-10T06:42:10;102738.47;;;18.86;100.00
52949;BME280;38812;50.942;3.644;2022-07-10T06:44:37;102746.13;;;19.00;100.00
52949;BME280;38812;50.942;3.644;2022-07-10T06:47:03;102729.97;;;18.72;100.00
52949;BME280;38812;50.942;3.644;2022-07-10T06:49:47;102725.66;;;18.66;100.00
52949;BME280;38812;50.942;3.644;2022-07-10T06:52:13;102746.72;;;19.09;100.00
52949;BME280;38812;50.942;3.644;2022-07-10T06:54:39;102745.06;;;19.05;100.00
52949;BME280;38812;50.942;3.644;2022-07-10T06:57:06;102727.59;;;18.95;100.00
52949;BME280;38812;50.942;3.644;2022-07-10T06:59:31;102753.56;;;18.86;100.00
52949;BME280;38812;50.942;3.644;2022-07-10T07:01:57;102749.06;;;18.88;100.00
52949;BME280;38812;50.942;3.644;2022-07-10T07:04:22;102710.97;;;18.86;100.00
52949;BME280;38812;50.942;3.644;2022-07-10T07:06:47;102740.59;;;19.06;100.00
52949;BME280;38812;50.942;3.644;2022-07-10T07:09:13;102722.91;;;19.05;100.00
52949;BME280;38812;50.942;3.644;2022-07-10T07:11:38;102730.66;;;19.12;100.00
52949;BME280;38812;50.942;3.644;2022-07-10T07:14:03;102744.34;;;19.31;100.00
52949;BME280;38812;50.942;3.644;2022-07-10T07:16:29;102736.63;;;19.22;100.00
52949;BME280;38812;50.942;3.644;2022-07-10T07:19:04;102727.88;;;19.17;100.00
52949;BME280;38812;50.942;3.644;2022-07-10T07:21:31;102735.97;;;19.46;100.00
52949;BME280;38812;50.942;3.644;2022-07-10T07:24:15;102737.94;;;19.38;100.00
52949;BME280;38812;50.942;3.644;2022-07-10T07:26:44;102751.63;;;19.59;100.00
52949;BME280;38812;50.942;3.644;2022-07-10T07:29:09;102750.28;;;19.42;100.00
52949;BME280;38812;50.942;3.644;2022-07-10T07:31:34;102731.53;;;19.45;100.00
52949;BME280;38812;50.942;3.644;2022-07-10T07:34:00;102717.50;;;19.39;100.00
52949;BME280;38812;50.942;3.644;2022-07-10T07:36:25;102741.59;;;19.68;100.00
52949;BME280;38812;50.942;3.644;2022-07-10T07:38:50;102737.38;;;19.91;100.00
52949;BME280;38812;50.942;3.644;2022-07-10T07:41:17;102732.25;;;20.12;100.00
52949;BME280;38812;50.942;3.644;2022-07-10T07:43:43;102718.75;;;19.89;100.00
52949;BME280;38812;50.942;3.644;2022-07-10T07:46:08;102729.09;;;19.98;100.00
52949;BME280;38812;50.942;3.644;2022-07-10T07:48:35;102714.81;;;20.01;100.00
52949;BME280;38812;50.942;3.644;2022-07-10T07:51:00;102724.75;;;20.24;100.00
52949;BME280;38812;50.942;3.644;2022-07-10T07:53:26;102704.66;;;20.13;100.00
52949;BME280;38812;50.942;3.644;2022-07-10T07:55:51;102714.00;;;20.27;100.00
52949;BME280;38812;50.942;3.644;2022-07-10T07:58:17;102731.84;;;20.25;100.00
52949;BME280;38812;50.942;3.644;2022-07-10T08:00:42;102735.66;;;19.88;100.00
52949;BME280;38812;50.942;3.644;2022-07-10T08:03:08;102739.28;;;19.85;100.00
52949;BME280;38812;50.942;3.644;2022-07-10T08:05:33;102728.66;;;20.13;100.00
52949;BME280;38812;50.942;3.644;2022-07-10T08:07:59;102717.16;;;20.11;100.00
52949;BME280;38812;50.942;3.644;2022-07-10T08:10:30;102712.41;;;20.49;100.00
52949;BME280;38812;50.942;3.644;2022-07-10T08:12:55;102719.28;;;20.82;100.00
52949;BME280;38812;50.942;3.644;2022-07-10T08:15:21;102701.78;;;20.47;100.00
52949;BME280;38812;50.942;3.644;2022-07-10T08:17:54;102721.19;;;21.30;100.00
52949;BME280;38812;50.942;3.644;2022-07-10T08:20:21;102736.13;;;22.07;100.00
52949;BME280;38812;50.942;3.644;2022-07-10T08:22:47;102724.28;;;22.78;96.30
52949;BME280;38812;50.942;3.644;2022-07-10T08:25:13;102714.31;;;22.60;90.35
52949;BME280;38812;50.942;3.644;2022-07-10T08:27:39;102711.56;;;23.04;87.53
52949;BME280;38812;50.942;3.644;2022-07-10T08:30:06;102714.56;;;24.13;77.37
52949;BME280;38812;50.942;3.644;2022-07-10T08:32:31;102705.19;;;24.58;71.78
52949;BME280;38812;50.942;3.644;2022-07-10T08:34:57;102728.31;;;25.31;73.06
52949;BME280;38812;50.942;3.644;2022-07-10T08:37:24;102724.88;;;25.60;69.01
52949;BME280;38812;50.942;3.644;2022-07-10T08:39:49;102726.78;;;25.58;65.75
52949;BME280;38812;50.942;3.644;2022-07-10T08:42:15;102722.78;;;25.17;69.81
52949;BME280;38812;50.942;3.644;2022-07-10T08:44:41;102716.41;;;25.35;68.76
52949;BME280;38812;50.942;3.644;2022-07-10T08:47:07;102720.78;;;25.71;72.80
52949;BME280;38812;50.942;3.644;2022-07-10T08:49:32;102716.03;;;25.58;69.70
52949;BME280;38812;50.942;3.644;2022-07-10T08:54:43;102720.72;;;24.87;66.05
52949;BME280;38812;50.942;3.644;2022-07-10T08:57:10;102715.50;;;24.67;72.27
52949;BME280;38812;50.942;3.644;2022-07-10T08:59:36;102727.00;;;24.52;72.73
52949;BME280;38812;50.942;3.644;2022-07-10T09:02:01;102723.13;;;23.84;77.39
52949;BME280;38812;50.942;3.644;2022-07-10T09:04:27;102699.47;;;23.54;81.96
52949;BME280;38812;50.942;3.644;2022-07-10T09:06:54;102692.91;;;23.80;82.57
52949;BME280;38812;50.942;3.644;2022-07-10T09:09:20;102685.00;;;24.13;79.21
52949;BME280;38812;50.942;3.644;2022-07-10T09:11:45;102682.44;;;23.93;87.90
52949;BME280;38812;50.942;3.644;2022-07-10T09:14:14;102689.47;;;23.58;84.13
52949;BME280;38812;50.942;3.644;2022-07-10T09:16:41;102690.03;;;23.65;80.58
52949;BME280;38812;50.942;3.644;2022-07-10T09:19:27;102689.44;;;24.14;79.61
52949;BME280;38812;50.942;3.644;2022-07-10T09:24:25;102681.47;;;24.49;83.24
52949;BME280;38812;50.942;3.644;2022-07-10T09:29:21;102691.66;;;26.24;72.06
52949;BME280;38812;50.942;3.644;2022-07-10T09:31:53;102696.78;;;26.45;64.82
52949;BME280;38812;50.942;3.644;2022-07-10T09:34:40;102697.34;;;26.04;67.32
52949;BME280;38812;50.942;3.644;2022-07-10T09:37:25;102677.13;;;25.97;61.80
52949;BME280;38812;50.942;3.644;2022-07-10T09:39:55;102685.75;;;26.79;64.83
52949;BME280;38812;50.942;3.644;2022-07-10T09:42:34;102699.81;;;27.28;58.69
52949;BME280;38812;50.942;3.644;2022-07-10T09:50:03;102688.34;;;27.11;58.68
52949;BME280;38812;50.942;3.644;2022-07-10T09:52:29;102686.81;;;27.21;58.81
52949;BME280;38812;50.942;3.644;2022-07-10T09:54:58;102685.47;;;27.42;58.33
52949;BME280;38812;50.942;3.644;2022-07-10T09:57:27;102693.44;;;27.15;59.15
52949;BME280;38812;50.942;3.644;2022-07-10T09:59:53;102690.63;;;26.58;58.52
52949;BME280;38812;50.942;3.644;2022-07-10T10:02:21;102675.44;;;25.30;66.66
52949;BME280;38812;50.942;3.644;2022-07-10T10:04:48;102690.66;;;25.80;66.91
52949;BME280;38812;50.942;3.644;2022-07-10T10:07:14;102666.09;;;25.04;70.20
52949;BME280;38812;50.942;3.644;2022-07-10T10:09:46;102664.91;;;25.10;71.13
52949;BME280;38812;50.942;3.644;2022-07-10T10:12:21;102663.78;;;24.79;72.54
52949;BME280;38812;50.942;3.644;2022-07-10T10:14:53;102675.75;;;25.08;69.63
52949;BME280;38812;50.942;3.644;2022-07-10T10:17:19;102678.31;;;24.92;72.05
52949;BME280;38812;50.942;3.644;2022-07-10T10:19:45;102675.50;;;24.96;68.93
52949;BME280;38812;50.942;3.644;2022-07-10T10:22:30;102679.63;;;25.03;69.57
52949;BME280;38812;50.942;3.644;2022-07-10T10:24:57;102672.47;;;25.52;70.03
52949;BME280;38812;50.942;3.644;2022-07-10T10:27:23;102675.81;;;25.07;68.46
52949;BME280;38812;50.942;3.644;2022-07-10T10:29:49;102666.69;;;25.42;68.55
52949;BME280;38812;50.942;3.644;2022-07-10T10:32:16;102651.31;;;25.93;61.51
52949;BME280;38812;50.942;3.644;2022-07-10T10:34:51;102657.56;;;26.09;60.98
52949;BME280;38812;50.942;3.644;2022-07-10T10:37:37;102649.91;;;25.86;60.21
52949;BME280;38812;50.942;3.644;2022-07-10T10:40:04;102664.09;;;25.74;61.33
52949;BME280;38812;50.942;3.644;2022-07-10T10:45:35;102665.69;;;25.60;62.87
52949;BME280;38812;50.942;3.644;2022-07-10T10:48:09;102650.00;;;25.69;62.07
52949;BME280;38812;50.942;3.644;2022-07-10T10:50:38;102664.63;;;26.42;60.52
52949;BME280;38812;50.942;3.644;2022-07-10T10:53:04;102640.72;;;27.10;56.08
52949;BME280;38812;50.942;3.644;2022-07-10T10:55:30;102670.28;;;26.21;60.75
52949;BME280;38812;50.942;3.644;2022-07-10T10:58:14;102658.41;;;25.78;60.24
52949;BME280;38812;50.942;3.644;2022-07-10T11:00:40;102646.47;;;26.75;58.59
52949;BME280;38812;50.942;3.644;2022-07-10T11:03:18;102650.34;;;28.12;55.68
52949;BME280;38812;50.942;3.644;2022-07-10T11:05:44;102623.00;;;28.16;55.08
52949;BME280;38812;50.942;3.644;2022-07-10T11:08:11;102643.47;;;26.80;57.88
52949;BME280;38812;50.942;3.644;2022-07-10T11:10:44;102641.66;;;26.05;60.09
52949;BME280;38812;50.942;3.644;2022-07-10T11:13:14;102635.00;;;25.96;62.70
52949;BME280;38812;50.942;3.644;2022-07-10T11:15:44;102620.31;;;25.86;63.60
52949;BME280;38812;50.942;3.644;2022-07-10T11:18:12;102618.66;;;26.45;63.26
52949;BME280;38812;50.942;3.644;2022-07-10T11:20:43;102613.16;;;26.46;60.40
52949;BME280;38812;50.942;3.644;2022-07-10T11:24:17;102626.19;;;26.98;60.20
52949;BME280;38812;50.942;3.644;2022-07-10T11:26:36;102610.84;;;27.96;55.87
52949;BME280;38812;50.942;3.644;2022-07-10T11:29:08;102619.84;;;28.37;54.88
52949;BME280;38812;50.942;3.644;2022-07-10T11:31:34;102626.66;;;28.29;52.02
52949;BME280;38812;50.942;3.644;2022-07-10T11:34:04;102617.78;;;27.31;55.91
52949;BME280;38812;50.942;3.644;2022-07-10T11:36:29;102602.69;;;27.84;55.09
52949;BME280;38812;50.942;3.644;2022-07-10T11:39:04;102608.13;;;27.55;55.46
52949;BME280;38812;50.942;3.644;2022-07-10T11:41:30;102615.97;;;27.31;56.54
52949;BME280;38812;50.942;3.644;2022-07-10T11:44:01;102607.97;;;27.30;55.33
52949;BME280;38812;50.942;3.644;2022-07-10T11:46:29;102606.50;;;27.94;57.31
52949;BME280;38812;50.942;3.644;2022-07-10T11:48:55;102602.69;;;27.84;54.05
52949;BME280;38812;50.942;3.644;2022-07-10T11:53:58;102606.88;;;26.61;57.63
52949;BME280;38812;50.942;3.644;2022-07-10T11:56:25;102608.47;;;26.50;60.71
52949;BME280;38812;50.942;3.644;2022-07-10T12:01:23;102595.06;;;26.18;60.91
52949;BME280;38812;50.942;3.644;2022-07-10T12:03:56;102597.56;;;26.21;60.28
52949;BME280;38812;50.942;3.644;2022-07-10T12:06:22;102585.50;;;26.87;59.41
52949;BME280;38812;50.942;3.644;2022-07-10T12:08:48;102587.84;;;27.77;57.45
52949;BME280;38812;50.942;3.644;2022-07-10T12:11:15;102583.31;;;27.08;57.42
52949;BME280;38812;50.942;3.644;2022-07-10T12:13:42;102592.28;;;27.22;56.95
52949;BME280;38812;50.942;3.644;2022-07-10T12:16:07;102590.06;;;26.26;58.43
52949;BME280;38812;50.942;3.644;2022-07-10T12:18:33;102593.69;;;26.11;60.07
52949;BME280;38812;50.942;3.644;2022-07-10T12:20:59;102576.03;;;26.66;59.87
52949;BME280;38812;50.942;3.644;2022-07-10T12:23:26;102588.00;;;26.32;58.82
52949;BME280;38812;50.942;3.644;2022-07-10T12:25:53;102600.78;;;26.58;57.90
52949;BME280;38812;50.942;3.644;2022-07-10T12:28:19;102577.59;;;26.70;59.07
52949;BME280;38812;50.942;3.644;2022-07-10T12:30:46;102581.31;;;26.97;59.53
52949;BME280;38812;50.942;3.644;2022-07-10T12:33:15;102587.53;;;25.62;61.45
52949;BME280;38812;50.942;3.644;2022-07-10T12:35:49;102585.41;;;25.69;62.29
52949;BME280;38812;50.942;3.644;2022-07-10T12:38:19;102572.28;;;25.94;62.30
52949;BME280;38812;50.942;3.644;2022-07-10T12:40:45;102587.22;;;26.59;62.14
52949;BME280;38812;50.942;3.644;2022-07-10T12:43:11;102589.81;;;26.61;60.01
52949;BME280;38812;50.942;3.644;2022-07-10T12:45:39;102571.91;;;26.88;59.82
52949;BME280;38812;50.942;3.644;2022-07-10T12:48:05;102589.88;;;27.04;59.00
52949;BME280;38812;50.942;3.644;2022-07-10T12:50:33;102577.72;;;26.82;59.73
52949;BME280;38812;50.942;3.644;2022-07-10T12:53:10;102565.66;;;26.74;58.83
52949;BME280;38812;50.942;3.644;2022-07-10T12:55:39;102560.03;;;26.34;60.19
52949;BME280;38812;50.942;3.644;2022-07-10T12:58:10;102561.19;;;26.14;62.34
52949;BME280;38812;50.942;3.644;2022-07-10T13:00:44;102572.00;;;26.73;60.93
52949;BME280;38812;50.942;3.644;2022-07-10T13:03:11;102541.09;;;26.64;59.95